sensor_id;sensor_type;location;lat;lon;timestamp;temperature;humidity
8979;DHT22;4524;51.364;5.448;2022-09-09T00:02:19;15.30;98.80
8979;DHT22;4524;51.364;5.448;2022-09-09T00:04:57;15.40;96.70
8979;DHT22;4524;51.364;5.448;2022-09-09T00:07:37;15.40;96.10
8979;DHT22;4524;51.364;5.448;2022-09-09T00:10:16;15.30;98.80
8979;DHT22;4524;51.364;5.448;2022-09-09T00:12:53;15.30;99.80
8979;DHT22;4524;51.364;5.448;2022-09-09T00:15:26;15.30;97.30
8979;DHT22;4524;51.364;5.448;2022-09-09T00:17:59;15.30;99.70
8979;DHT22;4524;51.364;5.448;2022-09-09T00:20:32;15.30;98.40
8979;DHT22;4524;51.364;5.448;2022-09-09T00:23:09;15.30;99.50
8979;DHT22;4524;51.364;5.448;2022-09-09T00:25:45;15.30;97.70
8979;DHT22;4524;51.364;5.448;2022-09-09T00:28:20;15.30;99.10
8979;DHT22;4524;51.364;5.448;2022-09-09T00:30:48;15.30;97.90
8979;DHT22;4524;51.364;5.448;2022-09-09T00:33:18;15.30;97.80
8979;DHT22;4524;51.364;5.448;2022-09-09T00:35:50;15.20;96.70
8979;DHT22;4524;51.364;5.448;2022-09-09T00:38:25;15.20;98.70
8979;DHT22;4524;51.364;5.448;2022-09-09T00:41:00;15.20;99.90
8979;DHT22;4524;51.364;5.448;2022-09-09T00:43:32;15.20;99.90
8979;DHT22;4524;51.364;5.448;2022-09-09T00:46:21;15.20;99.90
8979;DHT22;4524;51.364;5.448;2022-09-09T00:49:03;15.20;99.90
8979;DHT22;4524;51.364;5.448;2022-09-09T00:51:44;15.20;99.90
8979;DHT22;4524;51.364;5.448;2022-09-09T00:54:28;15.20;99.90
8979;DHT22;4524;51.364;5.448;2022-09-09T00:57:06;15.30;99.90
8979;DHT22;4524;51.364;5.448;2022-09-09T00:59:46;15.20;99.90
8979;DHT22;4524;51.364;5.448;2022-09-09T01:02:24;15.20;99.90
8979;DHT22;4524;51.364;5.448;2022-09-09T01:04:53;15.10;99.90
8979;DHT22;4524;51.364;5.448;2022-09-09T01:07:22;15.10;99.90
8979;DHT22;4524;51.364;5.448;2022-09-09T01:09:57;15.10;99.90
8979;DHT22;4524;51.364;5.448;2022-09-09T01:12:30;15.10;99.90
8979;DHT22;4524;51.364;5.448;2022-09-09T01:15:08;15.10;99.90
8979;DHT22;4524;51.364;5.448;2022-09-09T01:17:50;15.10;99.90
8979;DHT22;4524;51.364;5.448;2022-09-09T01:20:23;15.00;99.90
8979;DHT22;4524;51.364;5.448;2022-09-09T01:23:19;15.00;99.90
8979;DHT22;4524;51.364;5.448;2022-09-09T01:26:15;15.00;99.90
8979;DHT22;4524;51.364;5.448;2022-09-09T01:28:47;15.00;99.90
8979;DHT22;4524;51.364;5.448;2022-09-09T01:31:19;15.00;99.90
8979;DHT22;4524;51.364;5.448;2022-09-09T01:33:48;15.00;99.90
8979;DHT22;4524;51.364;5.448;2022-09-09T01:36:23;15.00;99.90
8979;DHT22;4524;51.364;5.448;2022-09-09T01:38:52;14.90;99.90
8979;DHT22;4524;51.364;5.448;2022-09-09T01:41:22;14.90;99.90
8979;DHT22;4524;51.364;5.448;2022-09-09T01:44:01;14.90;99.90
8979;DHT22;4524;51.364;5.448;2022-09-09T01:46:31;14.90;99.90
8979;DHT22;4524;51.364;5.448;2022-09-09T01:49:01;14.90;99.90
8979;DHT22;4524;51.364;5.448;2022-09-09T01:51:30;14.90;99.90
8979;DHT22;4524;51.364;5.448;2022-09-09T01:54:02;14.90;99.90
8979;DHT22;4524;51.364;5.448;2022-09-09T01:56:40;14.90;99.90
8979;DHT22;4524;51.364;5.448;2022-09-09T01:59:20;14.90;99.90
8979;DHT22;4524;51.364;5.448;2022-09-09T02:02:09;14.90;99.90
8979;DHT22;4524;51.364;5.448;2022-09-09T02:04:47;14.80;99.90
8979;DHT22;4524;51.364;5.448;2022-09-09T02:07:29;14.90;99.90
8979;DHT22;4524;51.364;5.448;2022-09-09T02:10:10;14.80;99.90
8979;DHT22;4524;51.364;5.448;2022-09-09T02:12:49;14.90;99.90
8979;DHT22;4524;51.364;5.448;2022-09-09T02:15:23;14.90;99.90
8979;DHT22;4524;51.364;5.448;2022-09-09T02:17:57;14.80;99.90
8979;DHT22;4524;51.364;5.448;2022-09-09T02:20:26;14.90;99.90
8979;DHT22;4524;51.364;5.448;2022-09-09T02:23:01;14.90;99.90
8979;DHT22;4524;51.364;5.448;2022-09-09T02:25:29;14.90;99.90
8979;DHT22;4524;51.364;5.448;2022-09-09T02:28:09;14.90;99.90
8979;DHT22;4524;51.364;5.448;2022-09-09T02:30:40;14.90;99.90
8979;DHT22;4524;51.364;5.448;2022-09-09T02:33:10;14.90;99.90
8979;DHT22;4524;51.364;5.448;2022-09-09T02:35:46;14.90;99.90
8979;DHT22;4524;51.364;5.448;2022-09-09T02:38:20;14.90;99.90
8979;DHT22;4524;51.364;5.448;2022-09-09T02:40:56;14.90;99.90
8979;DHT22;4524;51.364;5.448;2022-09-09T02:43:31;14.80;99.90
8979;DHT22;4524;51.364;5.448;2022-09-09T02:46:06;14.80;99.90
8979;DHT22;4524;51.364;5.448;2022-09-09T02:48:42;14.80;99.90
8979;DHT22;4524;51.364;5.448;2022-09-09T02:51:19;14.80;99.90
8979;DHT22;4524;51.364;5.448;2022-09-09T02:53:56;14.80;99.90
8979;DHT22;4524;51.364;5.448;2022-09-09T02:56:30;14.90;99.90
8979;DHT22;4524;51.364;5.448;2022-09-09T02:59:04;14.90;99.90
8979;DHT22;4524;51.364;5.448;2022-09-09T03:01:34;14.90;99.90
8979;DHT22;4524;51.364;5.448;2022-09-09T03:04:03;15.00;99.90
8979;DHT22;4524;51.364;5.448;2022-09-09T03:06:32;15.00;99.90
8979;DHT22;4524;51.364;5.448;2022-09-09T03:09:09;15.00;99.90
8979;DHT22;4524;51.364;5.448;2022-09-09T03:11:37;15.00;99.90
8979;DHT22;4524;51.364;5.448;2022-09-09T03:14:08;15.00;99.90
8979;DHT22;4524;51.364;5.448;2022-09-09T03:16:37;14.90;99.90
8979;DHT22;4524;51.364;5.448;2022-09-09T03:19:06;15.00;99.90
8979;DHT22;4524;51.364;5.448;2022-09-09T03:21:34;15.00;99.90
8979;DHT22;4524;51.364;5.448;2022-09-09T03:24:02;15.00;99.90
8979;DHT22;4524;51.364;5.448;2022-09-09T03:26:30;15.00;99.90
8979;DHT22;4524;51.364;5.448;2022-09-09T03:28:59;15.00;99.90
8979;DHT22;4524;51.364;5.448;2022-09-09T03:31:30;14.90;99.90
8979;DHT22;4524;51.364;5.448;2022-09-09T03:33:59;14.90;99.90
8979;DHT22;4524;51.364;5.448;2022-09-09T03:36:30;14.90;99.90
8979;DHT22;4524;51.364;5.448;2022-09-09T03:38:58;14.90;99.90
8979;DHT22;4524;51.364;5.448;2022-09-09T03:41:29;14.90;99.90
8979;DHT22;4524;51.364;5.448;2022-09-09T03:43:59;14.90;99.90
8979;DHT22;4524;51.364;5.448;2022-09-09T03:46:33;14.90;99.90
8979;DHT22;4524;51.364;5.448;2022-09-09T03:49:01;15.00;99.90
8979;DHT22;4524;51.364;5.448;2022-09-09T03:51:31;15.00;99.90
8979;DHT22;4524;51.364;5.448;2022-09-09T03:54:04;15.00;99.90
8979;DHT22;4524;51.364;5.448;2022-09-09T03:56:35;15.10;99.90
8979;DHT22;4524;51.364;5.448;2022-09-09T03:59:03;15.10;99.90
8979;DHT22;4524;51.364;5.448;2022-09-09T04:01:33;16.00;99.90
8979;DHT22;4524;51.364;5.448;2022-09-09T04:04:01;16.60;63.60
8979;DHT22;4524;51.364;5.448;2022-09-09T04:06:29;16.90;1.00
8979;DHT22;4524;51.364;5.448;2022-09-09T04:08:57;17.10;1.00
8979;DHT22;4524;51.364;5.448;2022-09-09T04:11:26;17.40;1.00
8979;DHT22;4524;51.364;5.448;2022-09-09T04:13:55;17.50;1.00
8979;DHT22;4524;51.364;5.448;2022-09-09T04:16:23;17.70;1.00
8979;DHT22;4524;51.364;5.448;2022-09-09T04:18:54;17.80;1.00
8979;DHT22;4524;51.364;5.448;2022-09-09T04:21:22;17.90;1.00
8979;DHT22;4524;51.364;5.448;2022-09-09T04:23:50;18.00;1.00
8979;DHT22;4524;51.364;5.448;2022-09-09T04:26:19;18.20;1.00
8979;DHT22;4524;51.364;5.448;2022-09-09T04:28:47;18.10;1.00
8979;DHT22;4524;51.364;5.448;2022-09-09T04:31:18;18.20;1.00
8979;DHT22;4524;51.364;5.448;2022-09-09T04:33:49;18.10;1.00
8979;DHT22;4524;51.364;5.448;2022-09-09T04:36:19;18.20;1.00
8979;DHT22;4524;51.364;5.448;2022-09-09T04:38:49;18.00;1.00
8979;DHT22;4524;51.364;5.448;2022-09-09T04:41:17;17.90;1.00
8979;DHT22;4524;51.364;5.448;2022-09-09T04:43:49;17.90;1.00
8979;DHT22;4524;51.364;5.448;2022-09-09T04:46:17;17.90;1.00
8979;DHT22;4524;51.364;5.448;2022-09-09T04:48:47;17.80;1.00
8979;DHT22;4524;51.364;5.448;2022-09-09T04:51:16;17.70;1.00
8979;DHT22;4524;51.364;5.448;2022-09-09T04:53:48;17.80;1.00
8979;DHT22;4524;51.364;5.448;2022-09-09T04:56:17;17.80;1.00
8979;DHT22;4524;51.364;5.448;2022-09-09T04:58:51;17.70;1.00
8979;DHT22;4524;51.364;5.448;2022-09-09T05:01:23;17.90;1.00
8979;DHT22;4524;51.364;5.448;2022-09-09T05:03:53;17.70;1.00
8979;DHT22;4524;51.364;5.448;2022-09-09T05:06:22;17.80;1.00
8979;DHT22;4524;51.364;5.448;2022-09-09T05:08:56;17.80;1.00
8979;DHT22;4524;51.364;5.448;2022-09-09T05:11:29;17.70;1.00
8979;DHT22;4524;51.364;5.448;2022-09-09T05:14:07;17.60;1.00
8979;DHT22;4524;51.364;5.448;2022-09-09T05:16:35;17.60;1.00
8979;DHT22;4524;51.364;5.448;2022-09-09T05:19:03;17.60;1.00
8979;DHT22;4524;51.364;5.448;2022-09-09T05:21:42;17.70;1.00
8979;DHT22;4524;51.364;5.448;2022-09-09T05:24:13;17.80;1.00
8979;DHT22;4524;51.364;5.448;2022-09-09T05:26:41;17.80;1.00
8979;DHT22;4524;51.364;5.448;2022-09-09T05:29:10;17.90;1.00
8979;DHT22;4524;51.364;5.448;2022-09-09T05:31:38;17.90;1.00
8979;DHT22;4524;51.364;5.448;2022-09-09T05:34:11;17.80;1.00
8979;DHT22;4524;51.364;5.448;2022-09-09T05:36:39;17.90;1.00
8979;DHT22;4524;51.364;5.448;2022-09-09T05:39:07;17.90;1.00
8979;DHT22;4524;51.364;5.448;2022-09-09T05:41:36;17.90;1.00
8979;DHT22;4524;51.364;5.448;2022-09-09T05:44:05;17.90;1.00
8979;DHT22;4524;51.364;5.448;2022-09-09T05:46:37;18.00;1.00
8979;DHT22;4524;51.364;5.448;2022-09-09T05:49:05;17.90;1.00
8979;DHT22;4524;51.364;5.448;2022-09-09T05:51:35;17.90;1.00
8979;DHT22;4524;51.364;5.448;2022-09-09T05:54:08;18.10;99.90
8979;DHT22;4524;51.364;5.448;2022-09-09T05:56:43;18.10;99.90
8979;DHT22;4524;51.364;5.448;2022-09-09T05:59:16;18.20;99.90
8979;DHT22;4524;51.364;5.448;2022-09-09T06:01:45;18.20;99.90
8979;DHT22;4524;51.364;5.448;2022-09-09T06:04:20;18.20;99.90
8979;DHT22;4524;51.364;5.448;2022-09-09T06:06:51;18.20;99.90
8979;DHT22;4524;51.364;5.448;2022-09-09T06:09:21;18.10;1.00
8979;DHT22;4524;51.364;5.448;2022-09-09T06:11:50;18.10;1.00
8979;DHT22;4524;51.364;5.448;2022-09-09T06:14:20;18.10;1.00
8979;DHT22;4524;51.364;5.448;2022-09-09T06:16:50;18.10;1.00
8979;DHT22;4524;51.364;5.448;2022-09-09T06:19:22;18.30;1.00
8979;DHT22;4524;51.364;5.448;2022-09-09T06:21:55;18.40;99.90
8979;DHT22;4524;51.364;5.448;2022-09-09T06:24:24;18.40;99.90
8979;DHT22;4524;51.364;5.448;2022-09-09T06:26:53;18.50;99.90
8979;DHT22;4524;51.364;5.448;2022-09-09T06:29:26;18.40;99.90
8979;DHT22;4524;51.364;5.448;2022-09-09T06:31:54;18.30;99.90
8979;DHT22;4524;51.364;5.448;2022-09-09T06:34:25;18.20;99.90
8979;DHT22;4524;51.364;5.448;2022-09-09T06:36:55;18.20;99.90
8979;DHT22;4524;51.364;5.448;2022-09-09T06:39:25;18.10;1.00
8979;DHT22;4524;51.364;5.448;2022-09-09T06:41:55;18.20;1.00
8979;DHT22;4524;51.364;5.448;2022-09-09T06:44:54;18.10;1.00
8979;DHT22;4524;51.364;5.448;2022-09-09T06:47:36;17.60;1.00
8979;DHT22;4524;51.364;5.448;2022-09-09T06:50:04;17.30;1.00
8979;DHT22;4524;51.364;5.448;2022-09-09T06:52:33;17.20;1.00
8979;DHT22;4524;51.364;5.448;2022-09-09T06:55:03;17.10;1.00
8979;DHT22;4524;51.364;5.448;2022-09-09T06:57:34;17.00;1.00
8979;DHT22;4524;51.364;5.448;2022-09-09T07:00:15;16.90;1.00
8979;DHT22;4524;51.364;5.448;2022-09-09T07:02:43;16.90;1.00
8979;DHT22;4524;51.364;5.448;2022-09-09T07:05:12;16.90;12.00
8979;DHT22;4524;51.364;5.448;2022-09-09T07:07:43;17.00;5.70
8979;DHT22;4524;51.364;5.448;2022-09-09T07:10:13;17.00;11.10
8979;DHT22;4524;51.364;5.448;2022-09-09T07:12:42;17.00;3.10
8979;DHT22;4524;51.364;5.448;2022-09-09T07:15:12;17.10;7.10
8979;DHT22;4524;51.364;5.448;2022-09-09T07:17:43;17.30;1.00
8979;DHT22;4524;51.364;5.448;2022-09-09T07:20:11;17.60;1.00
8979;DHT22;4524;51.364;5.448;2022-09-09T07:22:41;17.60;1.00
8979;DHT22;4524;51.364;5.448;2022-09-09T07:25:10;17.50;1.00
8979;DHT22;4524;51.364;5.448;2022-09-09T07:27:38;17.60;1.00
8979;DHT22;4524;51.364;5.448;2022-09-09T07:30:10;17.50;1.00
8979;DHT22;4524;51.364;5.448;2022-09-09T07:32:46;17.70;1.00
8979;DHT22;4524;51.364;5.448;2022-09-09T07:35:14;17.80;1.00
8979;DHT22;4524;51.364;5.448;2022-09-09T07:37:42;17.80;1.00
8979;DHT22;4524;51.364;5.448;2022-09-09T07:40:16;17.90;1.00
8979;DHT22;4524;51.364;5.448;2022-09-09T07:42:46;17.90;1.00
8979;DHT22;4524;51.364;5.448;2022-09-09T07:45:15;18.00;1.00
8979;DHT22;4524;51.364;5.448;2022-09-09T07:47:43;18.20;1.00
8979;DHT22;4524;51.364;5.448;2022-09-09T07:50:12;18.40;1.00
8979;DHT22;4524;51.364;5.448;2022-09-09T07:52:40;18.40;1.00
8979;DHT22;4524;51.364;5.448;2022-09-09T07:55:07;18.30;1.00
8979;DHT22;4524;51.364;5.448;2022-09-09T07:57:36;18.30;1.00
8979;DHT22;4524;51.364;5.448;2022-09-09T08:00:05;18.20;1.00
8979;DHT22;4524;51.364;5.448;2022-09-09T08:02:42;18.10;1.00
8979;DHT22;4524;51.364;5.448;2022-09-09T08:05:10;18.20;1.00
8979;DHT22;4524;51.364;5.448;2022-09-09T08:07:39;18.20;1.00
8979;DHT22;4524;51.364;5.448;2022-09-09T08:10:07;18.20;1.00
8979;DHT22;4524;51.364;5.448;2022-09-09T08:12:38;18.10;1.00
8979;DHT22;4524;51.364;5.448;2022-09-09T08:15:22;18.10;1.00
8979;DHT22;4524;51.364;5.448;2022-09-09T08:17:51;18.10;1.00
8979;DHT22;4524;51.364;5.448;2022-09-09T08:20:19;18.90;99.90
8979;DHT22;4524;51.364;5.448;2022-09-09T08:22:47;18.10;99.90
8979;DHT22;4524;51.364;5.448;2022-09-09T08:25:16;17.40;99.90
8979;DHT22;4524;51.364;5.448;2022-09-09T08:27:44;17.10;99.90
8979;DHT22;4524;51.364;5.448;2022-09-09T08:30:12;17.00;99.90
8979;DHT22;4524;51.364;5.448;2022-09-09T08:32:40;16.90;99.90
8979;DHT22;4524;51.364;5.448;2022-09-09T08:35:13;17.00;99.90
8979;DHT22;4524;51.364;5.448;2022-09-09T08:37:41;16.90;99.90
8979;DHT22;4524;51.364;5.448;2022-09-09T08:40:18;16.80;99.90
8979;DHT22;4524;51.364;5.448;2022-09-09T08:42:50;16.90;99.90
8979;DHT22;4524;51.364;5.448;2022-09-09T08:45:31;16.90;99.90
8979;DHT22;4524;51.364;5.448;2022-09-09T08:48:14;16.90;99.90
8979;DHT22;4524;51.364;5.448;2022-09-09T08:50:45;16.90;99.90
8979;DHT22;4524;51.364;5.448;2022-09-09T08:53:23;16.90;99.90
8979;DHT22;4524;51.364;5.448;2022-09-09T08:55:55;17.10;99.90
8979;DHT22;4524;51.364;5.448;2022-09-09T08:58:33;17.10;99.90
8979;DHT22;4524;51.364;5.448;2022-09-09T09:01:29;17.00;99.90
8979;DHT22;4524;51.364;5.448;2022-09-09T09:04:05;17.00;99.90
8979;DHT22;4524;51.364;5.448;2022-09-09T09:06:47;17.00;99.90
8979;DHT22;4524;51.364;5.448;2022-09-09T09:09:21;17.00;99.90
8979;DHT22;4524;51.364;5.448;2022-09-09T09:11:52;16.90;99.90
8979;DHT22;4524;51.364;5.448;2022-09-09T09:14:23;17.00;99.90
8979;DHT22;4524;51.364;5.448;2022-09-09T09:16:59;16.90;99.90
8979;DHT22;4524;51.364;5.448;2022-09-09T09:19:31;16.90;99.90
8979;DHT22;4524;51.364;5.448;2022-09-09T09:22:06;17.00;99.90
8979;DHT22;4524;51.364;5.448;2022-09-09T09:24:45;17.00;99.90
8979;DHT22;4524;51.364;5.448;2022-09-09T09:27:18;17.00;99.90
8979;DHT22;4524;51.364;5.448;2022-09-09T09:29:51;16.90;99.90
8979;DHT22;4524;51.364;5.448;2022-09-09T09:32:51;17.00;99.90
8979;DHT22;4524;51.364;5.448;2022-09-09T09:35:20;17.30;99.90
8979;DHT22;4524;51.364;5.448;2022-09-09T09:37:49;17.60;99.90
8979;DHT22;4524;51.364;5.448;2022-09-09T09:40:48;17.80;99.90
8979;DHT22;4524;51.364;5.448;2022-09-09T09:43:21;18.00;99.90
8979;DHT22;4524;51.364;5.448;2022-09-09T09:45:50;18.00;99.90
8979;DHT22;4524;51.364;5.448;2022-09-09T09:48:38;17.90;99.90
8979;DHT22;4524;51.364;5.448;2022-09-09T09:51:09;17.70;99.90
8979;DHT22;4524;51.364;5.448;2022-09-09T09:53:40;17.80;99.90
8979;DHT22;4524;51.364;5.448;2022-09-09T09:56:12;17.80;99.90
8979;DHT22;4524;51.364;5.448;2022-09-09T09:58:49;17.70;99.90
8979;DHT22;4524;51.364;5.448;2022-09-09T10:01:22;17.70;99.90
8979;DHT22;4524;51.364;5.448;2022-09-09T10:03:53;17.50;99.90
8979;DHT22;4524;51.364;5.448;2022-09-09T10:06:30;17.40;99.90
8979;DHT22;4524;51.364;5.448;2022-09-09T10:09:01;17.50;99.90
8979;DHT22;4524;51.364;5.448;2022-09-09T10:11:40;17.50;99.90
8979;DHT22;4524;51.364;5.448;2022-09-09T10:14:17;17.40;99.90
8979;DHT22;4524;51.364;5.448;2022-09-09T10:16:59;17.50;99.90
8979;DHT22;4524;51.364;5.448;2022-09-09T10:19:32;17.50;99.90
8979;DHT22;4524;51.364;5.448;2022-09-09T10:22:09;17.40;99.90
8979;DHT22;4524;51.364;5.448;2022-09-09T10:25:02;17.40;99.90
8979;DHT22;4524;51.364;5.448;2022-09-09T10:27:40;17.40;99.90
8979;DHT22;4524;51.364;5.448;2022-09-09T10:30:14;17.30;99.90
8979;DHT22;4524;51.364;5.448;2022-09-09T10:32:48;17.30;99.90
8979;DHT22;4524;51.364;5.448;2022-09-09T10:35:25;17.30;99.90
8979;DHT22;4524;51.364;5.448;2022-09-09T10:38:14;17.40;99.90
8979;DHT22;4524;51.364;5.448;2022-09-09T10:40:58;17.40;99.90
8979;DHT22;4524;51.364;5.448;2022-09-09T10:43:39;17.50;99.90
8979;DHT22;4524;51.364;5.448;2022-09-09T10:46:15;17.50;99.90
8979;DHT22;4524;51.364;5.448;2022-09-09T10:48:58;17.60;99.90
8979;DHT22;4524;51.364;5.448;2022-09-09T10:51:37;17.70;99.90
8979;DHT22;4524;51.364;5.448;2022-09-09T10:57:11;18.00;99.90
8979;DHT22;4524;51.364;5.448;2022-09-09T10:59:43;18.10;99.90
8979;DHT22;4524;51.364;5.448;2022-09-09T11:02:17;18.20;99.90
8979;DHT22;4524;51.364;5.448;2022-09-09T11:04:50;18.30;99.90
8979;DHT22;4524;51.364;5.448;2022-09-09T11:07:25;18.40;99.90
8979;DHT22;4524;51.364;5.448;2022-09-09T11:10:01;18.50;99.90
8979;DHT22;4524;51.364;5.448;2022-09-09T11:12:31;18.50;99.90
8979;DHT22;4524;51.364;5.448;2022-09-09T11:15:07;18.70;99.90
8979;DHT22;4524;51.364;5.448;2022-09-09T11:17:43;18.60;99.90
8979;DHT22;4524;51.364;5.448;2022-09-09T11:20:14;18.80;99.90
8979;DHT22;4524;51.364;5.448;2022-09-09T11:22:46;18.70;99.90
8979;DHT22;4524;51.364;5.448;2022-09-09T11:25:17;18.70;99.90
8979;DHT22;4524;51.364;5.448;2022-09-09T11:28:01;18.80;99.90
8979;DHT22;4524;51.364;5.448;2022-09-09T11:30:43;18.90;99.90
8979;DHT22;4524;51.364;5.448;2022-09-09T11:33:41;18.90;99.90
8979;DHT22;4524;51.364;5.448;2022-09-09T11:36:29;18.80;99.90
8979;DHT22;4524;51.364;5.448;2022-09-09T11:39:10;18.70;99.90
8979;DHT22;4524;51.364;5.448;2022-09-09T11:41:40;18.70;99.90
8979;DHT22;4524;51.364;5.448;2022-09-09T11:44:17;18.80;99.90
8979;DHT22;4524;51.364;5.448;2022-09-09T11:46:48;18.90;99.90
8979;DHT22;4524;51.364;5.448;2022-09-09T11:49:27;18.80;99.90
8979;DHT22;4524;51.364;5.448;2022-09-09T11:51:55;18.90;99.90
8979;DHT22;4524;51.364;5.448;2022-09-09T11:54:29;19.00;99.90
8979;DHT22;4524;51.364;5.448;2022-09-09T11:56:58;19.00;99.90
8979;DHT22;4524;51.364;5.448;2022-09-09T11:59:30;19.10;99.90
8979;DHT22;4524;51.364;5.448;2022-09-09T12:01:59;19.00;99.90
8979;DHT22;4524;51.364;5.448;2022-09-09T12:04:32;19.20;99.90
8979;DHT22;4524;51.364;5.448;2022-09-09T12:07:03;19.40;99.90
8979;DHT22;4524;51.364;5.448;2022-09-09T12:09:42;19.40;99.90
8979;DHT22;4524;51.364;5.448;2022-09-09T12:12:31;19.40;99.90
8979;DHT22;4524;51.364;5.448;2022-09-09T12:15:17;19.60;99.90
8979;DHT22;4524;51.364;5.448;2022-09-09T12:17:48;19.70;99.90
8979;DHT22;4524;51.364;5.448;2022-09-09T12:20:19;19.70;99.90
8979;DHT22;4524;51.364;5.448;2022-09-09T12:23:01;19.70;99.90
8979;DHT22;4524;51.364;5.448;2022-09-09T12:25:46;19.60;99.90
8979;DHT22;4524;51.364;5.448;2022-09-09T12:28:18;19.70;99.90
8979;DHT22;4524;51.364;5.448;2022-09-09T12:30:54;19.50;99.90
8979;DHT22;4524;51.364;5.448;2022-09-09T12:33:24;19.40;99.90
8979;DHT22;4524;51.364;5.448;2022-09-09T12:35:55;19.40;99.90
8979;DHT22;4524;51.364;5.448;2022-09-09T12:38:29;19.40;99.90
8979;DHT22;4524;51.364;5.448;2022-09-09T12:40:59;19.30;99.90
8979;DHT22;4524;51.364;5.448;2022-09-09T12:43:28;19.30;99.90
8979;DHT22;4524;51.364;5.448;2022-09-09T12:46:00;19.40;83.90
8979;DHT22;4524;51.364;5.448;2022-09-09T12:48:33;19.70;58.40
8979;DHT22;4524;51.364;5.448;2022-09-09T12:51:16;19.80;1.00
8979;DHT22;4524;51.364;5.448;2022-09-09T12:53:45;20.00;1.00
8979;DHT22;4524;51.364;5.448;2022-09-09T12:56:19;20.00;1.00
8979;DHT22;4524;51.364;5.448;2022-09-09T12:58:49;20.10;1.00
8979;DHT22;4524;51.364;5.448;2022-09-09T13:01:22;20.10;1.00
8979;DHT22;4524;51.364;5.448;2022-09-09T13:03:51;20.40;1.00
8979;DHT22;4524;51.364;5.448;2022-09-09T13:06:21;20.20;1.00
8979;DHT22;4524;51.364;5.448;2022-09-09T13:08:56;20.00;1.00
8979;DHT22;4524;51.364;5.448;2022-09-09T13:11:27;20.00;1.00
8979;DHT22;4524;51.364;5.448;2022-09-09T13:13:57;20.00;1.00
8979;DHT22;4524;51.364;5.448;2022-09-09T13:16:29;20.10;1.00
8979;DHT22;4524;51.364;5.448;2022-09-09T13:18:59;20.20;1.00
8979;DHT22;4524;51.364;5.448;2022-09-09T13:21:33;20.20;1.00
8979;DHT22;4524;51.364;5.448;2022-09-09T13:24:01;20.40;1.00
8979;DHT22;4524;51.364;5.448;2022-09-09T13:26:30;20.50;1.00
8979;DHT22;4524;51.364;5.448;2022-09-09T13:29:14;20.60;1.00
8979;DHT22;4524;51.364;5.448;2022-09-09T13:31:46;20.50;1.00
8979;DHT22;4524;51.364;5.448;2022-09-09T13:34:27;20.60;1.00
8979;DHT22;4524;51.364;5.448;2022-09-09T13:36:58;20.60;1.00
8979;DHT22;4524;51.364;5.448;2022-09-09T13:39:28;20.70;1.00
8979;DHT22;4524;51.364;5.448;2022-09-09T13:41:56;20.80;1.00
8979;DHT22;4524;51.364;5.448;2022-09-09T13:44:46;20.70;1.00
8979;DHT22;4524;51.364;5.448;2022-09-09T13:47:20;20.50;1.00
8979;DHT22;4524;51.364;5.448;2022-09-09T13:49:49;20.30;1.00
8979;DHT22;4524;51.364;5.448;2022-09-09T13:52:18;20.30;1.00
8979;DHT22;4524;51.364;5.448;2022-09-09T13:54:47;20.30;1.00
8979;DHT22;4524;51.364;5.448;2022-09-09T13:57:19;20.60;1.00
8979;DHT22;4524;51.364;5.448;2022-09-09T13:59:48;20.60;1.00
8979;DHT22;4524;51.364;5.448;2022-09-09T14:02:33;20.50;1.00
8979;DHT22;4524;51.364;5.448;2022-09-09T14:05:02;20.20;1.00
8979;DHT22;4524;51.364;5.448;2022-09-09T14:07:30;20.20;1.00
8979;DHT22;4524;51.364;5.448;2022-09-09T14:09:58;20.20;1.00
8979;DHT22;4524;51.364;5.448;2022-09-09T14:12:26;20.40;1.00
8979;DHT22;4524;51.364;5.448;2022-09-09T14:14:54;20.30;1.00
8979;DHT22;4524;51.364;5.448;2022-09-09T14:17:22;20.20;1.00
8979;DHT22;4524;51.364;5.448;2022-09-09T14:19:52;20.10;1.00
8979;DHT22;4524;51.364;5.448;2022-09-09T14:22:20;20.00;1.00
8979;DHT22;4524;51.364;5.448;2022-09-09T14:24:48;20.10;1.00
8979;DHT22;4524;51.364;5.448;2022-09-09T14:27:17;20.10;1.00
8979;DHT22;4524;51.364;5.448;2022-09-09T14:29:45;20.10;5.20
8979;DHT22;4524;51.364;5.448;2022-09-09T14:32:13;20.00;1.00
8979;DHT22;4524;51.364;5.448;2022-09-09T14:34:41;19.90;11.00
8979;DHT22;4524;51.364;5.448;2022-09-09T14:37:10;20.10;1.00
8979;DHT22;4524;51.364;5.448;2022-09-09T14:39:38;20.20;1.00
8979;DHT22;4524;51.364;5.448;2022-09-09T14:42:06;20.20;1.00
8979;DHT22;4524;51.364;5.448;2022-09-09T14:44:35;20.10;1.00
8979;DHT22;4524;51.364;5.448;2022-09-09T14:47:04;20.20;1.00
8979;DHT22;4524;51.364;5.448;2022-09-09T14:49:32;20.20;1.00
8979;DHT22;4524;51.364;5.448;2022-09-09T14:52:01;20.10;1.00
8979;DHT22;4524;51.364;5.448;2022-09-09T14:54:30;20.00;1.00
8979;DHT22;4524;51.364;5.448;2022-09-09T14:56:58;20.10;1.00
8979;DHT22;4524;51.364;5.448;2022-09-09T14:59:26;20.10;1.00
8979;DHT22;4524;51.364;5.448;2022-09-09T15:01:54;20.10;99.90
8979;DHT22;4524;51.364;5.448;2022-09-09T15:04:22;20.20;1.00
8979;DHT22;4524;51.364;5.448;2022-09-09T15:06:51;20.20;1.00
8979;DHT22;4524;51.364;5.448;2022-09-09T15:09:19;20.10;1.00
8979;DHT22;4524;51.364;5.448;2022-09-09T15:11:49;20.10;1.00
8979;DHT22;4524;51.364;5.448;2022-09-09T15:14:16;20.00;1.00
8979;DHT22;4524;51.364;5.448;2022-09-09T15:16:51;20.00;1.00
8979;DHT22;4524;51.364;5.448;2022-09-09T15:19:19;19.90;1.00
8979;DHT22;4524;51.364;5.448;2022-09-09T15:21:46;19.90;1.00
8979;DHT22;4524;51.364;5.448;2022-09-09T15:24:15;19.80;1.00
8979;DHT22;4524;51.364;5.448;2022-09-09T15:26:43;19.90;1.00
8979;DHT22;4524;51.364;5.448;2022-09-09T15:29:13;20.10;1.00
8979;DHT22;4524;51.364;5.448;2022-09-09T15:31:40;20.00;1.00
8979;DHT22;4524;51.364;5.448;2022-09-09T15:34:08;19.80;1.00
8979;DHT22;4524;51.364;5.448;2022-09-09T15:36:37;19.70;14.30
8979;DHT22;4524;51.364;5.448;2022-09-09T15:39:07;19.70;1.00
8979;DHT22;4524;51.364;5.448;2022-09-09T15:41:36;19.80;12.00
8979;DHT22;4524;51.364;5.448;2022-09-09T15:44:04;20.20;17.00
8979;DHT22;4524;51.364;5.448;2022-09-09T15:46:35;20.50;1.00
8979;DHT22;4524;51.364;5.448;2022-09-09T15:49:06;20.50;1.00
8979;DHT22;4524;51.364;5.448;2022-09-09T15:51:36;20.70;1.00
8979;DHT22;4524;51.364;5.448;2022-09-09T15:54:11;20.70;1.00
8979;DHT22;4524;51.364;5.448;2022-09-09T15:56:40;20.60;1.00
8979;DHT22;4524;51.364;5.448;2022-09-09T15:59:09;20.50;1.00
8979;DHT22;4524;51.364;5.448;2022-09-09T16:01:39;20.40;1.00
8979;DHT22;4524;51.364;5.448;2022-09-09T16:04:08;20.30;1.00
8979;DHT22;4524;51.364;5.448;2022-09-09T16:06:36;20.20;1.00
8979;DHT22;4524;51.364;5.448;2022-09-09T16:09:06;20.20;1.00
8979;DHT22;4524;51.364;5.448;2022-09-09T16:11:36;20.00;1.00
8979;DHT22;4524;51.364;5.448;2022-09-09T16:14:05;19.90;1.00
8979;DHT22;4524;51.364;5.448;2022-09-09T16:16:34;19.90;1.00
8979;DHT22;4524;51.364;5.448;2022-09-09T16:19:05;19.90;1.00
8979;DHT22;4524;51.364;5.448;2022-09-09T16:21:35;19.80;1.00
8979;DHT22;4524;51.364;5.448;2022-09-09T16:24:05;19.80;1.00
8979;DHT22;4524;51.364;5.448;2022-09-09T16:26:35;19.70;1.00
8979;DHT22;4524;51.364;5.448;2022-09-09T16:29:03;19.60;1.00
8979;DHT22;4524;51.364;5.448;2022-09-09T16:31:32;19.60;1.00
8979;DHT22;4524;51.364;5.448;2022-09-09T16:34:00;19.50;1.00
8979;DHT22;4524;51.364;5.448;2022-09-09T16:36:32;19.60;1.00
8979;DHT22;4524;51.364;5.448;2022-09-09T16:39:03;19.50;1.00
8979;DHT22;4524;51.364;5.448;2022-09-09T16:41:33;19.50;1.00
8979;DHT22;4524;51.364;5.448;2022-09-09T16:44:02;19.50;1.00
8979;DHT22;4524;51.364;5.448;2022-09-09T16:46:32;19.30;1.00
8979;DHT22;4524;51.364;5.448;2022-09-09T16:49:04;19.00;99.90